createdAt,value
2022-08-16T00:02:33.233Z,2.07
2022-08-16T00:05:01.649Z,2.10
2022-08-16T00:07:29.947Z,1.80
2022-08-16T00:09:58.859Z,2.50
2022-08-16T00:12:27.426Z,2.33
2022-08-16T00:14:57.894Z,2.17
2022-08-16T00:17:28.666Z,1.97
2022-08-16T00:20:17.087Z,2.13
2022-08-16T00:22:49.805Z,2.10
2022-08-16T00:25:21.900Z,2.03
2022-08-16T00:28:11.073Z,2.40
2022-08-16T00:30:41.186Z,2.20
2022-08-16T00:33:10.660Z,2.17
2022-08-16T00:35:40.347Z,2.20
2022-08-16T00:38:41.349Z,2.17
2022-08-16T00:40:58.049Z,1.90
2022-08-16T00:43:43.275Z,2.50
2022-08-16T00:46:33.300Z,2.13
2022-08-16T00:49:05.846Z,2.20
2022-08-16T00:51:34.862Z,1.93
2022-08-16T00:54:07.305Z,2.07
2022-08-16T00:56:58.647Z,1.70
2022-08-16T00:59:32.951Z,1.60
2022-08-16T01:02:30.571Z,1.70
2022-08-16T01:05:09.574Z,2.10
2022-08-16T01:07:51.179Z,1.90
2022-08-16T01:10:22.247Z,2.10
2022-08-16T01:13:02.469Z,1.80
2022-08-16T01:15:34.520Z,1.77
2022-08-16T01:18:05.907Z,1.70
2022-08-16T01:20:36.647Z,1.63
2022-08-16T01:23:11.230Z,1.80
2022-08-16T01:25:45.464Z,2.03
2022-08-16T01:28:30.797Z,2.00
2022-08-16T01:31:00.365Z,1.70
2022-08-16T01:33:33.374Z,1.87
2022-08-16T01:36:11.605Z,1.70
2022-08-16T01:38:46.914Z,2.10
2022-08-16T01:41:21.679Z,1.57
2022-08-16T01:43:54.189Z,1.60
2022-08-16T01:46:39.976Z,2.10
2022-08-16T01:49:45.448Z,1.90
2022-08-16T01:52:29.370Z,1.67
2022-08-16T01:55:35.422Z,1.20
2022-08-16T01:58:07.023Z,1.77
2022-08-16T02:00:40.246Z,2.27
2022-08-16T02:03:08.590Z,1.60
2022-08-16T02:05:42.028Z,2.23
2022-08-16T02:08:33.561Z,2.10
2022-08-16T02:11:05.547Z,1.73
2022-08-16T02:13:35.360Z,2.13
2022-08-16T02:16:05.188Z,1.80
2022-08-16T02:18:46.930Z,1.97
2022-08-16T02:21:16.512Z,1.97
2022-08-16T02:23:45.439Z,1.90
2022-08-16T02:26:17.012Z,1.73
2022-08-16T02:28:48.851Z,1.57
2022-08-16T02:31:20.784Z,1.60
2022-08-16T02:34:09.248Z,1.60
2022-08-16T02:36:49.862Z,2.40
2022-08-16T02:39:22.381Z,1.70
2022-08-16T02:41:53.592Z,2.30
2022-08-16T02:44:27.059Z,1.90
2022-08-16T02:46:57.089Z,1.50
2022-08-16T02:49:58.613Z,1.60
2022-08-16T02:52:24.770Z,1.97
2022-08-16T02:55:00.872Z,1.90
2022-08-16T02:57:31.037Z,2.13
2022-08-16T03:00:03.821Z,1.83
2022-08-16T03:02:55.749Z,1.87
2022-08-16T03:05:25.267Z,1.60
2022-08-16T03:08:00.040Z,2.33
2022-08-16T03:10:36.889Z,2.17
2022-08-16T03:13:12.505Z,2.50
2022-08-16T03:15:43.936Z,2.23
2022-08-16T03:18:18.598Z,2.30
2022-08-16T03:21:02.027Z,2.00
2022-08-16T03:23:35.869Z,1.97
2022-08-16T03:26:05.434Z,1.90
2022-08-16T03:28:33.619Z,1.80
2022-08-16T03:31:04.151Z,2.03
2022-08-16T03:33:34.052Z,2.07
2022-08-16T03:36:30.187Z,2.20
2022-08-16T03:38:56.522Z,1.90
2022-08-16T03:41:29.534Z,2.37
2022-08-16T03:44:40.657Z,2.00
2022-08-16T03:47:04.666Z,2.03
2022-08-16T03:49:38.633Z,2.50
2022-08-16T03:52:08.664Z,2.03
2022-08-16T03:54:38.348Z,1.97
2022-08-16T03:57:21.992Z,2.60
2022-08-16T03:59:51.334Z,2.60
2022-08-16T04:02:31.238Z,1.80
2022-08-16T04:05:02.058Z,2.10
2022-08-16T04:07:33.483Z,2.00
2022-08-16T04:10:36.115Z,2.23
2022-08-16T04:12:53.439Z,1.60
2022-08-16T04:15:24.299Z,2.27
2022-08-16T04:18:10.628Z,2.70
2022-08-16T04:20:40.280Z,2.10
2022-08-16T04:23:09.223Z,2.20
2022-08-16T04:25:40.576Z,2.53
2022-08-16T04:28:29.183Z,2.23
2022-08-16T04:30:59.572Z,2.50
2022-08-16T04:33:29.678Z,2.00
2022-08-16T04:36:03.600Z,2.30
2022-08-16T04:38:33.003Z,2.40
2022-08-16T04:41:01.294Z,2.00
2022-08-16T04:43:30.842Z,2.47
2022-08-16T04:46:03.042Z,2.60
2022-08-16T04:48:37.909Z,2.40
2022-08-16T04:51:12.641Z,1.83
2022-08-16T04:53:46.001Z,2.90
2022-08-16T04:56:16.529Z,2.90
2022-08-16T04:58:46.793Z,2.53
2022-08-16T05:01:18.501Z,2.70
2022-08-16T05:04:00.536Z,2.30
2022-08-16T05:06:44.881Z,2.37
2022-08-16T05:09:23.159Z,2.97
2022-08-16T05:11:57.349Z,2.70
2022-08-16T05:14:45.164Z,2.47
2022-08-16T05:17:18.444Z,2.77
2022-08-16T05:19:57.526Z,2.47
2022-08-16T05:22:30.110Z,2.20
2022-08-16T05:25:02.367Z,2.50
2022-08-16T05:27:42.989Z,2.20
2022-08-16T05:30:34.852Z,2.60
2022-08-16T05:33:04.428Z,2.10
2022-08-16T05:35:34.338Z,2.20
2022-08-16T05:38:32.464Z,1.87
2022-08-16T05:41:04.031Z,1.90
2022-08-16T05:43:43.611Z,2.30
2022-08-16T05:46:30.375Z,2.80
2022-08-16T05:49:09.454Z,2.23
2022-08-16T05:51:41.951Z,2.33
2022-08-16T05:54:14.454Z,2.60
2022-08-16T05:56:45.928Z,2.40
2022-08-16T05:59:19.553Z,2.40
2022-08-16T06:01:51.881Z,2.40
2022-08-16T06:04:34.804Z,3.00
2022-08-16T06:07:17.991Z,1.90
2022-08-16T06:10:00.099Z,2.10
2022-08-16T06:12:31.341Z,2.17
2022-08-16T06:15:09.933Z,2.77
2022-08-16T06:17:43.019Z,2.67
2022-08-16T06:20:23.449Z,2.30
2022-08-16T06:23:03.003Z,2.60
2022-08-16T06:25:52.914Z,2.63
2022-08-16T06:28:35.905Z,2.40
2022-08-16T06:31:06.612Z,2.90
2022-08-16T06:33:41.674Z,2.80
2022-08-16T06:36:11.483Z,2.43
2022-08-16T06:38:55.354Z,2.77
2022-08-16T06:41:39.415Z,2.77
2022-08-16T06:44:20.740Z,3.50
2022-08-16T06:46:51.911Z,2.37
2022-08-16T06:49:22.229Z,2.80
2022-08-16T06:51:50.912Z,2.00
2022-08-16T06:54:27.225Z,2.40
2022-08-16T06:56:56.702Z,2.50
2022-08-16T06:59:25.716Z,2.77
2022-08-16T07:01:58.349Z,2.57
2022-08-16T07:04:32.528Z,2.30
2022-08-16T07:07:05.556Z,2.53
2022-08-16T07:09:35.626Z,3.10
2022-08-16T07:12:05.627Z,3.20
2022-08-16T07:14:36.731Z,2.60
2022-08-16T07:17:08.312Z,3.03
2022-08-16T07:20:02.479Z,2.50
2022-08-16T07:22:40.421Z,3.40
2022-08-16T07:25:22.799Z,3.13
2022-08-16T07:27:52.132Z,3.10
2022-08-16T07:30:39.673Z,3.17
2022-08-16T07:42:39.809Z,3.23
2022-08-16T07:45:10.429Z,3.20
2022-08-16T07:47:42.863Z,2.70
2022-08-16T07:58:43.453Z,3.20
2022-08-16T08:01:17.114Z,2.90
2022-08-16T08:17:50.402Z,3.00
2022-08-16T08:20:28.883Z,3.10
2022-08-16T08:23:02.044Z,3.17
2022-08-16T08:25:53.932Z,2.83
2022-08-16T08:28:26.356Z,3.23
2022-08-16T08:31:00.819Z,3.13
2022-08-16T08:33:31.351Z,3.47
2022-08-16T08:36:02.868Z,2.80
2022-08-16T08:38:46.038Z,3.50
2022-08-16T08:41:19.704Z,2.57
2022-08-16T08:43:54.941Z,3.13
2022-08-16T08:46:23.817Z,2.80
2022-08-16T08:48:59.538Z,2.97
2022-08-16T08:51:36.938Z,2.70
2022-08-16T08:54:09.495Z,2.50
2022-08-16T08:56:45.573Z,3.00
2022-08-16T08:59:34.492Z,3.13
2022-08-16T09:02:11.352Z,3.03
2022-08-16T09:04:47.929Z,2.57
2022-08-16T09:07:22.107Z,2.70
2022-08-16T09:10:06.176Z,2.67
2022-08-16T09:12:37.310Z,3.13
2022-08-16T09:15:21.527Z,3.57
2022-08-16T09:17:54.909Z,3.10
2022-08-16T09:20:27.181Z,3.37
2022-08-16T09:22:57.700Z,2.83
2022-08-16T09:25:35.283Z,2.50
2022-08-16T09:29:13.551Z,2.43
2022-08-16T09:31:32.603Z,2.47
2022-08-16T09:34:01.821Z,2.70
2022-08-16T09:36:32.862Z,2.77
2022-08-16T09:39:04.926Z,2.80
2022-08-16T09:41:33.613Z,3.00
2022-08-16T09:45:09.207Z,2.60
2022-08-16T09:46:55.924Z,2.77
2022-08-16T09:49:26.197Z,2.80
2022-08-16T09:52:05.591Z,2.73
2022-08-16T09:54:35.631Z,2.20
2022-08-16T09:57:04.493Z,3.10
2022-08-16T09:59:38.517Z,2.73
2022-08-16T10:02:27.620Z,2.30
2022-08-16T10:04:57.621Z,2.20
2022-08-16T10:07:26.499Z,2.50
2022-08-16T10:10:18.942Z,2.20
2022-08-16T10:13:14.598Z,2.27
2022-08-16T10:15:46.997Z,2.27
2022-08-16T10:18:56.831Z,2.10
2022-08-16T10:21:15.871Z,1.80
2022-08-16T10:23:44.281Z,2.47
2022-08-16T10:27:20.421Z,2.30
2022-08-16T10:29:04.657Z,1.90
2022-08-16T10:31:45.309Z,1.80
2022-08-16T10:34:30.931Z,1.93
2022-08-16T10:37:00.690Z,2.20
2022-08-16T10:39:32.960Z,2.60
2022-08-16T10:42:13.180Z,2.10
2022-08-16T10:44:42.525Z,2.10
2022-08-16T10:47:11.636Z,1.90
2022-08-16T10:49:40.263Z,2.10
2022-08-16T10:52:18.850Z,2.07
2022-08-16T10:57:37.342Z,1.77
2022-08-16T11:00:21.042Z,1.93
2022-08-16T11:02:58.818Z,2.10
2022-08-16T11:05:59.042Z,2.27
2022-08-16T11:08:31.297Z,2.00
2022-08-16T11:11:12.886Z,2.30
2022-08-16T11:13:58.846Z,1.83
2022-08-16T11:17:02.330Z,2.00
2022-08-16T11:19:16.710Z,2.13
2022-08-16T11:24:41.476Z,1.73
2022-08-16T11:27:23.413Z,2.30
2022-08-16T11:29:55.675Z,1.90
2022-08-16T11:32:31.924Z,1.93
2022-08-16T11:35:14.788Z,1.83
2022-08-16T11:40:37.773Z,2.00
2022-08-16T11:43:09.968Z,2.20
2022-08-16T11:45:42.346Z,2.20
2022-08-16T11:48:11.027Z,2.20
2022-08-16T11:50:39.152Z,2.30
2022-08-16T11:53:08.175Z,1.90
2022-08-16T11:55:38.203Z,1.90
2022-08-16T11:58:07.612Z,2.20
2022-08-16T12:00:50.471Z,2.20
2022-08-16T12:03:34.288Z,1.73
2022-08-16T12:06:10.994Z,2.30
2022-08-16T12:08:40.086Z,1.77
2022-08-16T12:11:09.970Z,2.27
2022-08-16T12:13:38.526Z,2.07
2022-08-16T12:16:08.215Z,1.90
2022-08-16T12:18:40.155Z,1.80
2022-08-16T12:21:09.818Z,2.10
2022-08-16T12:23:38.509Z,1.97
2022-08-16T12:26:10.363Z,2.07
2022-08-16T12:28:54.945Z,1.83
2022-08-16T12:31:25.683Z,2.00
2022-08-16T12:33:56.035Z,2.20
2022-08-16T12:36:29.768Z,2.07
2022-08-16T12:38:59.040Z,2.23
2022-08-16T12:41:27.227Z,1.80
2022-08-16T12:43:57.067Z,2.20
2022-08-16T12:46:30.946Z,2.07
2022-08-16T12:49:01.499Z,2.40
2022-08-16T12:51:58.223Z,2.30
2022-08-16T12:54:27.479Z,2.47
2022-08-16T12:56:56.152Z,1.83
2022-08-16T12:59:24.443Z,2.47
2022-08-16T13:02:00.836Z,2.27
2022-08-16T13:04:33.405Z,1.90
2022-08-16T13:09:42.378Z,2.10
2022-08-16T13:12:19.776Z,1.87
2022-08-16T13:14:50.129Z,2.47
2022-08-16T13:17:20.878Z,2.30
2022-08-16T13:20:11.350Z,2.27
2022-08-16T13:22:42.695Z,2.33
2022-08-16T13:25:18.937Z,2.63
2022-08-16T13:28:14.854Z,1.90
2022-08-16T13:30:42.617Z,2.57
2022-08-16T13:33:14.811Z,2.10
2022-08-16T13:35:55.521Z,2.00
2022-08-16T13:38:32.650Z,1.77
2022-08-16T13:41:08.362Z,1.93
2022-08-16T13:43:37.981Z,2.10
2022-08-16T13:46:06.607Z,2.10
2022-08-16T13:48:42.568Z,2.40
2022-08-16T13:51:16.760Z,2.03
2022-08-16T13:53:54.676Z,2.13
2022-08-16T13:56:38.198Z,1.97
2022-08-16T13:59:19.769Z,2.13
2022-08-16T14:01:55.624Z,2.20
2022-08-16T14:04:27.232Z,2.20
2022-08-16T14:06:58.522Z,2.30
2022-08-16T14:09:28.379Z,2.13
2022-08-16T14:11:57.582Z,1.90
2022-08-16T14:14:29.202Z,2.50
2022-08-16T14:16:59.249Z,2.10
2022-08-16T14:19:27.994Z,2.20
2022-08-16T14:22:13.720Z,1.90
2022-08-16T14:24:42.127Z,2.00
2022-08-16T14:27:15.660Z,1.90
2022-08-16T14:29:43.869Z,1.87
2022-08-16T14:32:27.042Z,1.83
2022-08-16T14:35:02.127Z,2.03
2022-08-16T14:37:32.689Z,2.27
2022-08-16T14:40:01.187Z,1.70
2022-08-16T14:42:31.850Z,1.70
2022-08-16T14:45:00.503Z,1.77
2022-08-16T14:47:34.025Z,1.93
2022-08-16T14:50:02.652Z,2.03
2022-08-16T14:52:57.386Z,1.80
2022-08-16T14:55:20.655Z,1.93
2022-08-16T14:57:48.828Z,1.93
2022-08-16T15:00:33.155Z,1.60
2022-08-16T15:03:04.696Z,1.87
2022-08-16T15:05:33.500Z,2.10
2022-08-16T15:08:05.181Z,2.17
2022-08-16T15:10:33.755Z,1.90
2022-08-16T15:13:06.696Z,2.13
2022-08-16T15:15:38.553Z,2.10
2022-08-16T15:18:11.944Z,2.07
2022-08-16T15:20:41.690Z,1.80
2022-08-16T15:23:11.743Z,1.90
2022-08-16T15:25:42.414Z,1.80
2022-08-16T15:28:31.213Z,2.30
2022-08-16T15:31:03.591Z,1.87
2022-08-16T15:33:34.559Z,1.73
2022-08-16T15:36:05.582Z,1.73
2022-08-16T15:39:02.067Z,2.00
2022-08-16T15:41:56.045Z,1.57
2022-08-16T15:44:26.990Z,2.07
2022-08-16T15:46:58.657Z,1.97
2022-08-16T15:49:38.004Z,1.90
2022-08-16T15:52:16.789Z,1.57
2022-08-16T15:54:53.079Z,1.67
2022-08-16T15:57:24.295Z,2.10
2022-08-16T15:59:55.870Z,1.50
2022-08-16T16:02:29.106Z,1.63
2022-08-16T16:05:01.043Z,1.87
2022-08-16T16:07:30.957Z,2.00
2022-08-16T16:10:01.146Z,1.90
2022-08-16T16:12:50.799Z,1.60
2022-08-16T16:15:20.131Z,1.90
2022-08-16T16:17:52.562Z,1.97
2022-08-16T16:20:24.326Z,1.73
2022-08-16T16:22:57.682Z,2.03
2022-08-16T16:25:38.669Z,1.50
2022-08-16T16:28:12.744Z,1.97
2022-08-16T16:30:56.915Z,1.97
2022-08-16T16:33:28.529Z,1.87
2022-08-16T16:35:59.356Z,2.07
2022-08-16T16:38:31.179Z,1.77
2022-08-16T16:41:02.864Z,1.80
2022-08-16T16:43:33.281Z,1.73
2022-08-16T16:46:03.260Z,1.87
2022-08-16T16:48:52.440Z,1.90
2022-08-16T16:51:21.924Z,1.87
2022-08-16T16:53:56.305Z,2.30
2022-08-16T16:56:31.348Z,1.97
2022-08-16T16:59:06.047Z,2.03
2022-08-16T17:01:56.904Z,1.83
2022-08-16T17:04:31.761Z,1.97
2022-08-16T17:07:02.485Z,2.20
2022-08-16T17:09:32.185Z,2.00
2022-08-16T17:12:05.029Z,1.80
2022-08-16T17:14:34.689Z,1.90
2022-08-16T17:17:06.862Z,1.60
2022-08-16T17:19:40.267Z,1.87
2022-08-16T17:22:14.336Z,2.37
2022-08-16T17:24:51.007Z,1.97
2022-08-16T17:27:33.646Z,2.03
2022-08-16T17:30:16.743Z,1.90
2022-08-16T17:32:50.196Z,1.73
2022-08-16T17:35:34.367Z,2.27
2022-08-16T17:38:04.788Z,2.40
2022-08-16T17:40:46.852Z,2.10
2022-08-16T17:43:27.559Z,1.93
2022-08-16T17:45:56.070Z,2.00
2022-08-16T17:48:24.236Z,2.00
2022-08-16T17:50:54.576Z,2.00
2022-08-16T17:53:23.365Z,2.03
2022-08-16T17:55:52.100Z,2.30
2022-08-16T17:58:23.345Z,2.03
2022-08-16T18:00:55.918Z,1.80
2022-08-16T18:04:03.264Z,1.63
2022-08-16T18:06:18.369Z,1.87
2022-08-16T18:08:48.329Z,1.87
2022-08-16T18:11:26.261Z,2.13
2022-08-16T18:13:55.404Z,2.10
2022-08-16T18:16:25.505Z,2.13
2022-08-16T18:18:53.623Z,2.07
2022-08-16T18:21:39.618Z,2.10
2022-08-16T18:24:09.725Z,2.37
2022-08-16T18:26:38.714Z,2.00
2022-08-16T18:29:07.520Z,2.17
2022-08-16T18:31:37.160Z,2.43
2022-08-16T18:34:05.751Z,2.20
2022-08-16T18:36:34.622Z,1.80
2022-08-16T18:39:02.808Z,1.97
2022-08-16T18:41:33.531Z,2.10
2022-08-16T18:44:26.720Z,2.13
2022-08-16T18:46:51.314Z,2.00
2022-08-16T18:49:20.319Z,2.00
2022-08-16T18:51:49.117Z,2.37
2022-08-16T18:54:18.937Z,1.97
2022-08-16T18:56:57.506Z,2.20
2022-08-16T18:59:30.324Z,1.70
2022-08-16T19:02:05.158Z,2.20
2022-08-16T19:04:55.328Z,2.10
2022-08-16T19:07:30.670Z,2.20
2022-08-16T19:10:00.819Z,2.13
2022-08-16T19:12:37.693Z,2.10
2022-08-16T19:15:14.202Z,1.70
2022-08-16T19:17:44.776Z,1.90
2022-08-16T19:20:14.799Z,2.10
2022-08-16T19:25:46.923Z,2.10
2022-08-16T19:28:33.370Z,1.73
2022-08-16T19:31:12.091Z,2.10
2022-08-16T19:33:53.583Z,1.90
2022-08-16T19:36:30.938Z,2.30
2022-08-16T19:39:05.298Z,2.10
2022-08-16T19:41:36.292Z,2.30
2022-08-16T19:44:05.208Z,2.27
2022-08-16T19:46:33.396Z,2.73
2022-08-16T19:49:03.263Z,2.33
2022-08-16T19:51:31.456Z,1.63
2022-08-16T19:53:59.649Z,2.03
2022-08-16T19:56:27.827Z,2.20
2022-08-16T20:01:45.085Z,2.10
2022-08-16T20:04:14.841Z,1.90
2022-08-16T20:06:43.540Z,2.30
2022-08-16T20:09:14.773Z,2.00
2022-08-16T20:11:44.283Z,2.00
2022-08-16T20:14:24.381Z,2.20
2022-08-16T20:16:59.615Z,2.07
2022-08-16T20:19:40.053Z,2.57
2022-08-16T20:22:49.608Z,2.00
2022-08-16T20:25:16.242Z,2.23
2022-08-16T20:27:45.543Z,2.33
2022-08-16T20:30:15.345Z,2.47
2022-08-16T20:32:45.063Z,1.90
2022-08-16T20:35:17.499Z,2.27
2022-08-16T20:37:47.353Z,2.03
2022-08-16T20:40:34.616Z,2.10
2022-08-16T20:43:07.037Z,2.03
2022-08-16T20:45:35.585Z,2.23
2022-08-16T20:48:04.309Z,2.30
2022-08-16T20:50:34.537Z,2.23
2022-08-16T20:53:02.829Z,2.20
2022-08-16T20:55:31.469Z,2.43
2022-08-16T20:57:59.554Z,1.87
2022-08-16T21:00:29.006Z,2.30
2022-08-16T21:02:57.179Z,2.00
2022-08-16T21:05:31.337Z,2.00
2022-08-16T21:08:01.586Z,2.87
2022-08-16T21:10:30.118Z,2.23
2022-08-16T21:13:02.664Z,2.50
2022-08-16T21:15:34.608Z,2.27
2022-08-16T21:18:03.423Z,2.40
2022-08-16T21:20:31.742Z,2.47
2022-08-16T21:23:03.935Z,2.10
2022-08-16T21:25:33.233Z,2.27
2022-08-16T21:28:41.621Z,2.80
2022-08-16T21:30:51.087Z,2.33
2022-08-16T21:33:20.551Z,2.60
2022-08-16T21:35:49.467Z,2.57
2022-08-16T21:38:29.953Z,2.70
2022-08-16T21:40:59.182Z,2.30
2022-08-16T21:43:31.787Z,2.67
2022-08-16T21:46:00.760Z,2.50
2022-08-16T21:48:35.061Z,2.47
2022-08-16T21:51:05.457Z,2.20
2022-08-16T21:53:35.236Z,2.77
2022-08-16T21:56:04.897Z,2.80
2022-08-16T21:58:33.314Z,3.30
2022-08-16T22:01:02.847Z,2.87
2022-08-16T22:03:33.021Z,3.07
2022-08-16T22:06:12.327Z,2.80
2022-08-16T22:08:44.201Z,3.27
2022-08-16T22:11:18.071Z,3.10
2022-08-16T22:13:57.368Z,3.20
2022-08-16T22:16:29.259Z,3.20
2022-08-16T22:18:57.412Z,3.60
2022-08-16T22:21:26.430Z,3.07
2022-08-16T22:23:57.601Z,2.90
2022-08-16T22:26:29.039Z,3.50
2022-08-16T22:29:00.394Z,3.50
2022-08-16T22:31:28.597Z,3.77
2022-08-16T22:33:57.450Z,3.73
2022-08-16T22:36:28.091Z,3.43
2022-08-16T22:38:59.515Z,3.60
2022-08-16T22:41:29.787Z,3.80
2022-08-16T22:43:57.962Z,3.60
2022-08-16T22:46:26.144Z,3.60
2022-08-16T22:48:54.776Z,4.23
2022-08-16T22:51:24.857Z,4.30
2022-08-16T22:53:53.693Z,4.17
2022-08-16T22:56:24.898Z,4.00
2022-08-16T22:58:53.314Z,4.00
2022-08-16T23:01:23.213Z,3.93
2022-08-16T23:03:51.728Z,3.17
2022-08-16T23:06:19.809Z,3.77
2022-08-16T23:08:48.000Z,3.47
2022-08-16T23:11:22.397Z,3.40
2022-08-16T23:13:56.138Z,3.93
2022-08-16T23:16:32.782Z,3.33
2022-08-16T23:19:03.219Z,4.00
2022-08-16T23:21:32.092Z,3.73
2022-08-16T23:24:00.252Z,3.30
2022-08-16T23:26:46.919Z,4.33
2022-08-16T23:29:23.517Z,3.40
2022-08-16T23:31:55.686Z,3.80
2022-08-16T23:34:24.509Z,3.60
2022-08-16T23:36:52.612Z,3.63
2022-08-16T23:39:20.985Z,3.97
2022-08-16T23:41:49.134Z,3.47
2022-08-16T23:44:57.260Z,3.53
2022-08-16T23:47:06.990Z,4.00
2022-08-16T23:49:58.176Z,3.33
2022-08-16T23:52:42.166Z,4.27
2022-08-16T23:55:11.813Z,3.80
2022-08-16T23:57:39.970Z,4.13
